sensor_id;sensor_type;location;lat;lon;timestamp;pressure;altitude;pressure_sealevel;temperature;humidity
5283;BME280;15376;48.540;9.268;2023-01-28T00:02:06;98024.84;;;-0.71;100.00
5283;BME280;15376;48.540;9.268;2023-01-28T00:04:31;98017.53;;;-0.79;100.00
5283;BME280;15376;48.540;9.268;2023-01-28T00:06:57;98035.28;;;-0.71;100.00
5283;BME280;15376;48.540;9.268;2023-01-28T00:09:22;98028.78;;;-0.78;100.00
5283;BME280;15376;48.540;9.268;2023-01-28T00:11:47;98032.78;;;-0.73;100.00
5283;BME280;15376;48.540;9.268;2023-01-28T00:14:13;98032.78;;;-0.73;100.00
5283;BME280;15376;48.540;9.268;2023-01-28T00:16:38;98033.59;;;-0.72;100.00
5283;BME280;15376;48.540;9.268;2023-01-28T00:19:04;98024.56;;;-0.67;100.00
5283;BME280;15376;48.540;9.268;2023-01-28T00:21:29;98018.59;;;-0.69;100.00
5283;BME280;15376;48.540;9.268;2023-01-28T00:23:55;98018.69;;;-0.70;100.00
5283;BME280;15376;48.540;9.268;2023-01-28T00:26:22;98021.22;;;-0.69;100.00
5283;BME280;15376;48.540;9.268;2023-01-28T00:28:47;98017.75;;;-0.69;100.00
5283;BME280;15376;48.540;9.268;2023-01-28T00:31:15;98018.69;;;-0.70;100.00
5283;BME280;15376;48.540;9.268;2023-01-28T00:33:42;98020.47;;;-0.71;100.00
5283;BME280;15376;48.540;9.268;2023-01-28T00:36:08;98017.75;;;-0.69;100.00
5283;BME280;15376;48.540;9.268;2023-01-28T00:38:34;98019.44;;;-0.68;100.00
5283;BME280;15376;48.540;9.268;2023-01-28T00:41:10;98033.41;;;-0.69;100.00
5283;BME280;15376;48.540;9.268;2023-01-28T00:43:36;98011.72;;;-0.70;100.00
5283;BME280;15376;48.540;9.268;2023-01-28T00:46:03;98018.41;;;-0.65;100.00
5283;BME280;15376;48.540;9.268;2023-01-28T00:48:28;98017.38;;;-0.63;100.00
5283;BME280;15376;48.540;9.268;2023-01-28T00:50:53;98006.00;;;-0.62;100.00
5283;BME280;15376;48.540;9.268;2023-01-28T00:53:19;98003.78;;;-0.68;100.00
5283;BME280;15376;48.540;9.268;2023-01-28T00:55:44;98012.56;;;-0.69;100.00
5283;BME280;15376;48.540;9.268;2023-01-28T00:58:09;98018.59;;;-0.69;100.00
5283;BME280;15376;48.540;9.268;2023-01-28T01:00:35;98011.63;;;-0.68;100.00
5283;BME280;15376;48.540;9.268;2023-01-28T01:03:00;98015.78;;;-0.65;100.00
5283;BME280;15376;48.540;9.268;2023-01-28T01:05:25;98028.00;;;-0.66;100.00
5283;BME280;15376;48.540;9.268;2023-01-28T01:07:51;98019.44;;;-0.68;100.00
5283;BME280;15376;48.540;9.268;2023-01-28T01:10:18;98020.28;;;-0.68;100.00
5283;BME280;15376;48.540;9.268;2023-01-28T01:12:47;98019.44;;;-0.68;100.00
5283;BME280;15376;48.540;9.268;2023-01-28T01:15:14;98012.84;;;-0.74;100.00
5283;BME280;15376;48.540;9.268;2023-01-28T01:17:41;98025.59;;;-0.69;100.00
5283;BME280;15376;48.540;9.268;2023-01-28T01:20:10;98020.28;;;-0.68;100.00
5283;BME280;15376;48.540;9.268;2023-01-28T01:22:37;98027.47;;;-0.71;100.00
5283;BME280;15376;48.540;9.268;2023-01-28T01:25:03;98024.84;;;-0.71;100.00
5283;BME280;15376;48.540;9.268;2023-01-28T01:27:30;98017.75;;;-0.69;100.00
5283;BME280;15376;48.540;9.268;2023-01-28T01:29:55;98019.25;;;-0.65;100.00
5283;BME280;15376;48.540;9.268;2023-01-28T01:32:21;98028.19;;;-0.69;100.00
5283;BME280;15376;48.540;9.268;2023-01-28T01:34:47;98032.56;;;-0.70;100.00
5283;BME280;15376;48.540;9.268;2023-01-28T01:37:13;98034.06;;;-0.65;100.00
5283;BME280;15376;48.540;9.268;2023-01-28T01:39:38;98036.13;;;-0.71;100.00
5283;BME280;15376;48.540;9.268;2023-01-28T01:42:04;98038.63;;;-0.69;100.00
5283;BME280;15376;48.540;9.268;2023-01-28T01:44:53;98031.75;;;-0.70;100.00
5283;BME280;15376;48.540;9.268;2023-01-28T01:47:24;98035.38;;;-0.73;100.00
5283;BME280;15376;48.540;9.268;2023-01-28T01:49:51;98012.72;;;-0.85;100.00
5283;BME280;15376;48.540;9.268;2023-01-28T01:52:23;98015.81;;;-0.92;100.00
5283;BME280;15376;48.540;9.268;2023-01-28T01:54:53;98044.13;;;-0.74;100.00
5283;BME280;15376;48.540;9.268;2023-01-28T01:57:23;98040.88;;;-0.77;100.00
5283;BME280;15376;48.540;9.268;2023-01-28T01:59:51;98036.50;;;-0.77;100.00
5283;BME280;15376;48.540;9.268;2023-01-28T02:02:17;98042.38;;;-0.73;100.00
5283;BME280;15376;48.540;9.268;2023-01-28T02:04:43;98051.97;;;-0.74;100.00
5283;BME280;15376;48.540;9.268;2023-01-28T02:07:13;98044.03;;;-0.72;100.00
5283;BME280;15376;48.540;9.268;2023-01-28T02:09:40;98032.31;;;-0.79;100.00
5283;BME280;15376;48.540;9.268;2023-01-28T02:12:15;98048.88;;;-0.66;100.00
5283;BME280;15376;48.540;9.268;2023-01-28T02:14:45;98043.09;;;-0.71;100.00
5283;BME280;15376;48.540;9.268;2023-01-28T02:17:12;98046.66;;;-0.72;100.00
5283;BME280;15376;48.540;9.268;2023-01-28T02:20:02;98043.00;;;-0.70;100.00
5283;BME280;15376;48.540;9.268;2023-01-28T02:30:31;98054.81;;;-0.64;100.00
5283;BME280;15376;48.540;9.268;2023-01-28T02:33:05;98044.78;;;-0.70;100.00
5283;BME280;15376;48.540;9.268;2023-01-28T02:35:44;98017.78;;;-0.96;100.00
5283;BME280;15376;48.540;9.268;2023-01-28T02:38:17;98056.78;;;-0.68;100.00
5283;BME280;15376;48.540;9.268;2023-01-28T02:40:51;98028.66;;;-0.89;100.00
5283;BME280;15376;48.540;9.268;2023-01-28T02:46:13;98032.09;;;-0.89;100.00
5283;BME280;15376;48.540;9.268;2023-01-28T02:49:00;98056.63;;;-0.79;100.00
5283;BME280;15376;48.540;9.268;2023-01-28T02:51:42;98051.19;;;-0.88;100.00
5283;BME280;15376;48.540;9.268;2023-01-28T02:54:20;98029.78;;;-0.93;100.00
5283;BME280;15376;48.540;9.268;2023-01-28T02:59:51;98048.50;;;-0.87;100.00
5283;BME280;15376;48.540;9.268;2023-01-28T03:02:49;98045.44;;;-0.93;100.00
5283;BME280;15376;48.540;9.268;2023-01-28T03:07:53;98052.31;;;-0.92;100.00
5283;BME280;15376;48.540;9.268;2023-01-28T03:10:22;98057.34;;;-0.89;100.00
5283;BME280;15376;48.540;9.268;2023-01-28T03:12:52;98052.31;;;-0.92;100.00
5283;BME280;15376;48.540;9.268;2023-01-28T03:15:43;98054.72;;;-0.89;100.00
5283;BME280;15376;48.540;9.268;2023-01-28T03:18:37;98065.06;;;-0.88;100.00
5283;BME280;15376;48.540;9.268;2023-01-28T03:21:32;98050.25;;;-0.87;100.00
5283;BME280;15376;48.540;9.268;2023-01-28T03:24:23;98024.41;;;-1.05;100.00
5283;BME280;15376;48.540;9.268;2023-01-28T03:27:39;98056.94;;;-0.83;100.00
5283;BME280;15376;48.540;9.268;2023-01-28T03:30:42;98057.16;;;-0.86;100.00
5283;BME280;15376;48.540;9.268;2023-01-28T03:33:27;98054.53;;;-0.86;100.00
5283;BME280;15376;48.540;9.268;2023-01-28T03:36:12;98053.59;;;-0.85;100.00
5283;BME280;15376;48.540;9.268;2023-01-28T03:38:55;98060.78;;;-0.89;100.00
5283;BME280;15376;48.540;9.268;2023-01-28T03:41:23;98061.53;;;-0.87;100.00
5283;BME280;15376;48.540;9.268;2023-01-28T03:43:50;98067.56;;;-0.86;100.00
5283;BME280;15376;48.540;9.268;2023-01-28T03:46:15;98067.56;;;-0.86;100.00
5283;BME280;15376;48.540;9.268;2023-01-28T03:48:42;98071.94;;;-0.87;100.00
5283;BME280;15376;48.540;9.268;2023-01-28T03:51:08;98073.63;;;-0.86;100.00
5283;BME280;15376;48.540;9.268;2023-01-28T03:53:34;98076.03;;;-0.83;100.00
5283;BME280;15376;48.540;9.268;2023-01-28T03:55:59;98076.31;;;-0.87;100.00
5283;BME280;15376;48.540;9.268;2023-01-28T03:58:25;98077.81;;;-0.83;100.00
5283;BME280;15376;48.540;9.268;2023-01-28T04:01:04;98086.38;;;-0.81;100.00
5283;BME280;15376;48.540;9.268;2023-01-28T04:03:29;98076.78;;;-0.81;100.00
5283;BME280;15376;48.540;9.268;2023-01-28T04:06:03;98080.09;;;-0.79;100.00
5283;BME280;15376;48.540;9.268;2023-01-28T04:08:29;98076.78;;;-0.81;100.00
5283;BME280;15376;48.540;9.268;2023-01-28T04:10:55;98058.19;;;-0.89;100.00
5283;BME280;15376;48.540;9.268;2023-01-28T04:13:20;98080.09;;;-0.79;100.00
5283;BME280;15376;48.540;9.268;2023-01-28T04:15:46;98082.59;;;-0.77;100.00
5283;BME280;15376;48.540;9.268;2023-01-28T04:18:11;98084.47;;;-0.79;100.00
5283;BME280;15376;48.540;9.268;2023-01-28T04:20:37;98081.69;;;-0.76;100.00
5283;BME280;15376;48.540;9.268;2023-01-28T04:23:04;98083.44;;;-0.77;100.00
5283;BME280;15376;48.540;9.268;2023-01-28T04:25:30;98084.28;;;-0.76;100.00
5283;BME280;15376;48.540;9.268;2023-01-28T04:27:56;98085.84;;;-0.74;100.00
5283;BME280;15376;48.540;9.268;2023-01-28T04:30:22;98097.03;;;-0.72;100.00
5283;BME280;15376;48.540;9.268;2023-01-28T04:32:47;98093.97;;;-0.78;100.00
5283;BME280;15376;48.540;9.268;2023-01-28T04:35:15;98064.22;;;-0.88;100.00
5283;BME280;15376;48.540;9.268;2023-01-28T04:37:40;98100.66;;;-0.74;100.00
5283;BME280;15376;48.540;9.268;2023-01-28T04:40:07;98108.28;;;-0.71;100.00
5283;BME280;15376;48.540;9.268;2023-01-28T04:42:32;98094.91;;;-0.79;100.00
5283;BME280;15376;48.540;9.268;2023-01-28T04:44:57;98111.84;;;-0.72;100.00
5283;BME280;15376;48.540;9.268;2023-01-28T04:47:23;98107.56;;;-0.73;100.00
5283;BME280;15376;48.540;9.268;2023-01-28T04:49:49;98115.38;;;-0.73;100.00
5283;BME280;15376;48.540;9.268;2023-01-28T04:52:14;98112.97;;;-0.76;100.00
5283;BME280;15376;48.540;9.268;2023-01-28T04:54:39;98108.50;;;-0.74;100.00
5283;BME280;15376;48.540;9.268;2023-01-28T04:57:05;98117.78;;;-0.70;100.00
5283;BME280;15376;48.540;9.268;2023-01-28T04:59:30;98116.03;;;-0.70;100.00
5283;BME280;15376;48.540;9.268;2023-01-28T05:01:55;98116.84;;;-0.69;100.00
5283;BME280;15376;48.540;9.268;2023-01-28T05:04:20;98119.38;;;-0.68;100.00
5283;BME280;15376;48.540;9.268;2023-01-28T05:06:46;98115.72;;;-0.65;100.00
5283;BME280;15376;48.540;9.268;2023-01-28T05:09:11;98108.84;;;-0.66;100.00
5283;BME280;15376;48.540;9.268;2023-01-28T05:11:36;98118.34;;;-0.65;100.00
5283;BME280;15376;48.540;9.268;2023-01-28T05:14:02;98114.78;;;-0.64;100.00
5283;BME280;15376;48.540;9.268;2023-01-28T05:16:27;98112.56;;;-0.70;100.00
5283;BME280;15376;48.540;9.268;2023-01-28T05:18:53;98120.84;;;-0.63;100.00
5283;BME280;15376;48.540;9.268;2023-01-28T05:21:18;98118.53;;;-0.68;100.00
5283;BME280;15376;48.540;9.268;2023-01-28T05:23:43;98125.03;;;-0.61;100.00
5283;BME280;15376;48.540;9.268;2023-01-28T05:26:09;98125.03;;;-0.61;100.00
5283;BME280;15376;48.540;9.268;2023-01-28T05:28:35;98131.19;;;-0.62;100.00
5283;BME280;15376;48.540;9.268;2023-01-28T05:31:04;98129.31;;;-0.60;100.00
5283;BME280;15376;48.540;9.268;2023-01-28T05:33:30;98127.66;;;-0.61;100.00
5283;BME280;15376;48.540;9.268;2023-01-28T05:35:56;98130.06;;;-0.58;100.00
5283;BME280;15376;48.540;9.268;2023-01-28T05:38:21;98127.44;;;-0.58;100.00
5283;BME280;15376;48.540;9.268;2023-01-28T05:40:46;98131.00;;;-0.59;100.00
5283;BME280;15376;48.540;9.268;2023-01-28T05:43:12;98128.19;;;-0.56;100.00
5283;BME280;15376;48.540;9.268;2023-01-28T05:45:37;98124.09;;;-0.60;100.00
5283;BME280;15376;48.540;9.268;2023-01-28T05:48:03;98116.75;;;-0.68;100.00
5283;BME280;15376;48.540;9.268;2023-01-28T05:50:28;98129.13;;;-0.57;100.00
5283;BME280;15376;48.540;9.268;2023-01-28T05:52:54;98129.88;;;-0.55;100.00
5283;BME280;15376;48.540;9.268;2023-01-28T05:55:19;98123.16;;;-0.59;100.00
5283;BME280;15376;48.540;9.268;2023-01-28T05:57:45;98130.72;;;-0.54;100.00
5283;BME280;15376;48.540;9.268;2023-01-28T06:00:10;98108.50;;;-0.74;100.00
5283;BME280;15376;48.540;9.268;2023-01-28T06:02:36;98134.63;;;-0.61;100.00
5283;BME280;15376;48.540;9.268;2023-01-28T06:05:02;98144.97;;;-0.60;100.00
5283;BME280;15376;48.540;9.268;2023-01-28T06:07:27;98143.94;;;-0.57;100.00
5283;BME280;15376;48.540;9.268;2023-01-28T06:09:52;98138.63;;;-0.56;100.00
5283;BME280;15376;48.540;9.268;2023-01-28T06:12:18;98138.91;;;-0.60;100.00
5283;BME280;15376;48.540;9.268;2023-01-28T06:14:43;98142.34;;;-0.60;100.00
5283;BME280;15376;48.540;9.268;2023-01-28T06:17:08;98146.34;;;-0.54;100.00
5283;BME280;15376;48.540;9.268;2023-01-28T06:19:34;98145.53;;;-0.55;100.00
5283;BME280;15376;48.540;9.268;2023-01-28T06:21:59;98153.34;;;-0.55;100.00
5283;BME280;15376;48.540;9.268;2023-01-28T06:24:24;98157.63;;;-0.54;100.00
5283;BME280;15376;48.540;9.268;2023-01-28T06:26:50;98147.38;;;-0.57;100.00
5283;BME280;15376;48.540;9.268;2023-01-28T06:29:15;98145.53;;;-0.55;100.00
5283;BME280;15376;48.540;9.268;2023-01-28T06:31:41;98155.94;;;-0.55;100.00
5283;BME280;15376;48.540;9.268;2023-01-28T06:34:08;98158.00;;;-0.60;100.00
5283;BME280;15376;48.540;9.268;2023-01-28T06:36:35;98148.44;;;-0.74;100.00
5283;BME280;15376;48.540;9.268;2023-01-28T06:39:02;98154.22;;;-0.69;100.00
5283;BME280;15376;48.540;9.268;2023-01-28T06:41:27;98153.00;;;-0.77;100.00
5283;BME280;15376;48.540;9.268;2023-01-28T06:43:53;98177.38;;;-0.64;100.00
5283;BME280;15376;48.540;9.268;2023-01-28T06:46:18;98168.91;;;-0.68;100.00
5283;BME280;15376;48.540;9.268;2023-01-28T06:48:43;98185.13;;;-0.62;100.00
5283;BME280;15376;48.540;9.268;2023-01-28T06:51:08;98185.13;;;-0.62;100.00
5283;BME280;15376;48.540;9.268;2023-01-28T06:53:34;98159.91;;;-0.76;100.00
5283;BME280;15376;48.540;9.268;2023-01-28T06:55:59;98188.47;;;-0.60;100.00
5283;BME280;15376;48.540;9.268;2023-01-28T06:58:24;98181.13;;;-0.68;100.00
5283;BME280;15376;48.540;9.268;2023-01-28T07:00:52;98177.22;;;-0.75;100.00
5283;BME280;15376;48.540;9.268;2023-01-28T07:03:17;98195.25;;;-0.58;100.00
5283;BME280;15376;48.540;9.268;2023-01-28T07:05:42;98184.66;;;-0.69;100.00
5283;BME280;15376;48.540;9.268;2023-01-28T07:08:08;98197.78;;;-0.56;100.00
5283;BME280;15376;48.540;9.268;2023-01-28T07:10:33;98200.38;;;-0.56;100.00
5283;BME280;15376;48.540;9.268;2023-01-28T07:12:58;98211.56;;;-0.54;100.00
5283;BME280;15376;48.540;9.268;2023-01-28T07:15:24;98204.56;;;-0.54;100.00
5283;BME280;15376;48.540;9.268;2023-01-28T07:17:49;98202.91;;;-0.55;100.00
5283;BME280;15376;48.540;9.268;2023-01-28T07:20:15;98204.56;;;-0.54;100.00
5283;BME280;15376;48.540;9.268;2023-01-28T07:22:42;98204.38;;;-0.51;100.00
5283;BME280;15376;48.540;9.268;2023-01-28T07:25:09;98206.06;;;-0.50;100.00
5283;BME280;15376;48.540;9.268;2023-01-28T07:27:35;98194.25;;;-0.55;100.00
5283;BME280;15376;48.540;9.268;2023-01-28T07:30:00;98204.09;;;-0.46;100.00
5283;BME280;15376;48.540;9.268;2023-01-28T07:32:26;98216.97;;;-0.43;100.00
5283;BME280;15376;48.540;9.268;2023-01-28T07:34:52;98200.94;;;-0.51;100.00
5283;BME280;15376;48.540;9.268;2023-01-28T07:37:17;98213.19;;;-0.39;100.00
5283;BME280;15376;48.540;9.268;2023-01-28T07:39:43;98218.81;;;-0.45;100.00
5283;BME280;15376;48.540;9.268;2023-01-28T07:42:08;98224.47;;;-0.39;100.00
5283;BME280;15376;48.540;9.268;2023-01-28T07:44:34;98232.19;;;-0.37;100.00
5283;BME280;15376;48.540;9.268;2023-01-28T07:47:01;98228.38;;;-0.31;100.00
5283;BME280;15376;48.540;9.268;2023-01-28T07:49:26;98228.91;;;-0.26;100.00
5283;BME280;15376;48.540;9.268;2023-01-28T07:51:51;98219.78;;;-0.34;100.00
5283;BME280;15376;48.540;9.268;2023-01-28T07:54:17;98227.69;;;-0.21;100.00
5283;BME280;15376;48.540;9.268;2023-01-28T07:56:42;98223.31;;;-0.20;100.00
5283;BME280;15376;48.540;9.268;2023-01-28T07:59:07;98211.38;;;-0.24;100.00
5283;BME280;15376;48.540;9.268;2023-01-28T08:01:33;98221.06;;;-0.12;100.00
5283;BME280;15376;48.540;9.268;2023-01-28T08:03:58;98236.88;;;-0.01;100.00
5283;BME280;15376;48.540;9.268;2023-01-28T08:06:23;98239.69;;;0.36;100.00
5283;BME280;15376;48.540;9.268;2023-01-28T08:08:49;98244.25;;;0.84;100.00
5283;BME280;15376;48.540;9.268;2023-01-28T08:11:14;98248.25;;;1.15;100.00
5283;BME280;15376;48.540;9.268;2023-01-28T08:13:39;98247.91;;;0.82;100.00
5283;BME280;15376;48.540;9.268;2023-01-28T08:16:05;98250.50;;;0.82;100.00
5283;BME280;15376;48.540;9.268;2023-01-28T08:18:31;98249.91;;;0.78;100.00
5283;BME280;15376;48.540;9.268;2023-01-28T08:20:57;98240.88;;;0.82;100.00
5283;BME280;15376;48.540;9.268;2023-01-28T08:23:24;98213.03;;;0.30;100.00
5283;BME280;15376;48.540;9.268;2023-01-28T08:25:53;98246.19;;;0.55;100.00
5283;BME280;15376;48.540;9.268;2023-01-28T08:28:20;98255.94;;;0.66;100.00
5283;BME280;15376;48.540;9.268;2023-01-28T08:30:45;98248.13;;;0.91;100.00
5283;BME280;15376;48.540;9.268;2023-01-28T08:33:12;98250.91;;;0.63;100.00
5283;BME280;15376;48.540;9.268;2023-01-28T08:35:38;98258.06;;;1.12;100.00
5283;BME280;15376;48.540;9.268;2023-01-28T08:38:06;98251.25;;;0.96;100.00
5283;BME280;15376;48.540;9.268;2023-01-28T08:40:32;98249.25;;;0.62;100.00
5283;BME280;15376;48.540;9.268;2023-01-28T08:42:58;98242.66;;;0.56;100.00
5283;BME280;15376;48.540;9.268;2023-01-28T08:45:25;98251.28;;;0.44;100.00
5283;BME280;15376;48.540;9.268;2023-01-28T08:47:53;98245.88;;;0.47;100.00
5283;BME280;15376;48.540;9.268;2023-01-28T08:50:20;98261.63;;;0.46;100.00
5283;BME280;15376;48.540;9.268;2023-01-28T08:52:47;98255.06;;;0.53;100.00
5283;BME280;15376;48.540;9.268;2023-01-28T08:55:16;98260.63;;;0.61;100.00
5283;BME280;15376;48.540;9.268;2023-01-28T08:57:43;98254.28;;;0.65;100.00
5283;BME280;15376;48.540;9.268;2023-01-28T09:00:08;98255.63;;;0.58;100.00
5283;BME280;15376;48.540;9.268;2023-01-28T09:02:37;98209.91;;;0.38;100.00
5283;BME280;15376;48.540;9.268;2023-01-28T09:05:03;98263.59;;;0.69;100.00
5283;BME280;15376;48.540;9.268;2023-01-28T09:07:29;98268.09;;;0.80;100.00
5283;BME280;15376;48.540;9.268;2023-01-28T09:09:55;98258.13;;;0.59;100.00
5283;BME280;15376;48.540;9.268;2023-01-28T09:12:20;98270.72;;;0.80;100.00
5283;BME280;15376;48.540;9.268;2023-01-28T09:14:46;98267.34;;;0.65;100.00
5283;BME280;15376;48.540;9.268;2023-01-28T09:17:11;98266.41;;;0.66;100.00
5283;BME280;15376;48.540;9.268;2023-01-28T09:19:36;98258.44;;;0.55;100.00
5283;BME280;15376;48.540;9.268;2023-01-28T09:22:03;98274.56;;;0.74;100.00
5283;BME280;15376;48.540;9.268;2023-01-28T09:24:28;98270.69;;;0.67;100.00
5283;BME280;15376;48.540;9.268;2023-01-28T09:26:54;98279.06;;;0.72;100.00
5283;BME280;15376;48.540;9.268;2023-01-28T09:29:19;98276.84;;;0.66;100.00
5283;BME280;15376;48.540;9.268;2023-01-28T09:31:45;98267.88;;;0.70;100.00
5283;BME280;15376;48.540;9.268;2023-01-28T09:34:10;98262.75;;;0.69;100.00
5283;BME280;15376;48.540;9.268;2023-01-28T09:36:35;98278.75;;;0.77;100.00
5283;BME280;15376;48.540;9.268;2023-01-28T09:39:02;98290.16;;;0.76;100.00
5283;BME280;15376;48.540;9.268;2023-01-28T09:41:42;98273.09;;;0.70;100.00
5283;BME280;15376;48.540;9.268;2023-01-28T09:47:03;98298.63;;;0.79;100.00
5283;BME280;15376;48.540;9.268;2023-01-28T09:49:46;98293.16;;;0.82;100.00
5283;BME280;15376;48.540;9.268;2023-01-28T09:52:17;98290.06;;;0.90;100.00
5283;BME280;15376;48.540;9.268;2023-01-28T09:54:52;98295.59;;;0.98;100.00
5283;BME280;15376;48.540;9.268;2023-01-28T09:57:22;98290.47;;;0.96;100.00
5283;BME280;15376;48.540;9.268;2023-01-28T09:59:48;98293.84;;;0.98;100.00
5283;BME280;15376;48.540;9.268;2023-01-28T10:05:35;98291.94;;;1.26;100.00
5283;BME280;15376;48.540;9.268;2023-01-28T10:08:19;98285.69;;;1.16;100.00
5283;BME280;15376;48.540;9.268;2023-01-28T10:16:18;98271.66;;;1.17;100.00
5283;BME280;15376;48.540;9.268;2023-01-28T10:18:57;98276.97;;;1.41;100.00
5283;BME280;15376;48.540;9.268;2023-01-28T10:24:16;98287.34;;;1.55;100.00
5283;BME280;15376;48.540;9.268;2023-01-28T10:26:43;98287.75;;;1.49;100.00
5283;BME280;15376;48.540;9.268;2023-01-28T10:29:20;98279.06;;;1.48;100.00
5283;BME280;15376;48.540;9.268;2023-01-28T10:31:53;98276.88;;;1.55;100.00
5283;BME280;15376;48.540;9.268;2023-01-28T10:34:19;98278.34;;;1.46;100.00
5283;BME280;15376;48.540;9.268;2023-01-28T10:36:46;98275.63;;;1.35;100.00
5283;BME280;15376;48.540;9.268;2023-01-28T10:39:17;98274.38;;;1.41;100.00
5283;BME280;15376;48.540;9.268;2023-01-28T10:41:44;98269.75;;;1.57;100.00
5283;BME280;15376;48.540;9.268;2023-01-28T10:44:27;98269.91;;;1.66;100.00
5283;BME280;15376;48.540;9.268;2023-01-28T10:46:56;98266.94;;;1.84;100.00
5283;BME280;15376;48.540;9.268;2023-01-28T10:49:26;98242.47;;;1.72;100.00
5283;BME280;15376;48.540;9.268;2023-01-28T10:51:55;98233.63;;;1.86;100.00
5283;BME280;15376;48.540;9.268;2023-01-28T10:54:22;98274.16;;;1.93;100.00
5283;BME280;15376;48.540;9.268;2023-01-28T10:56:53;98271.22;;;2.21;100.00
5283;BME280;15376;48.540;9.268;2023-01-28T10:59:21;98268.53;;;2.10;100.00
5283;BME280;15376;48.540;9.268;2023-01-28T11:01:56;98264.34;;;2.31;100.00
5283;BME280;15376;48.540;9.268;2023-01-28T11:04:27;98260.28;;;2.27;100.00
5283;BME280;15376;48.540;9.268;2023-01-28T11:07:18;98265.72;;;2.48;100.00
5283;BME280;15376;48.540;9.268;2023-01-28T11:09:47;98257.69;;;2.62;100.00
5283;BME280;15376;48.540;9.268;2023-01-28T11:12:33;98261.41;;;2.71;100.00
5283;BME280;15376;48.540;9.268;2023-01-28T11:15:03;98261.69;;;3.01;100.00
5283;BME280;15376;48.540;9.268;2023-01-28T11:17:37;98266.25;;;3.11;100.00
5283;BME280;15376;48.540;9.268;2023-01-28T11:20:12;98271.75;;;3.08;100.00
5283;BME280;15376;48.540;9.268;2023-01-28T11:22:44;98261.28;;;2.73;100.00
5283;BME280;15376;48.540;9.268;2023-01-28T11:25:23;98272.56;;;2.62;100.00
5283;BME280;15376;48.540;9.268;2023-01-28T11:27:51;98257.09;;;2.35;100.00
5283;BME280;15376;48.540;9.268;2023-01-28T11:30:37;98273.53;;;2.13;100.00
5283;BME280;15376;48.540;9.268;2023-01-28T11:33:15;98274.19;;;2.04;100.00
5283;BME280;15376;48.540;9.268;2023-01-28T11:35:41;98278.56;;;2.16;100.00
5283;BME280;15376;48.540;9.268;2023-01-28T11:38:18;98280.75;;;2.22;100.00
5283;BME280;15376;48.540;9.268;2023-01-28T11:40:50;98277.63;;;2.17;100.00
5283;BME280;15376;48.540;9.268;2023-01-28T11:43:18;98278.50;;;2.05;100.00
5283;BME280;15376;48.540;9.268;2023-01-28T11:46:25;98279.00;;;2.10;100.00
5283;BME280;15376;48.540;9.268;2023-01-28T11:49:17;98267.66;;;1.98;100.00
5283;BME280;15376;48.540;9.268;2023-01-28T11:54:46;98282.34;;;1.76;100.00
5283;BME280;15376;48.540;9.268;2023-01-28T11:57:25;98270.94;;;1.77;100.00
5283;BME280;15376;48.540;9.268;2023-01-28T12:02:42;98234.06;;;1.43;100.00
5283;BME280;15376;48.540;9.268;2023-01-28T12:10:47;98265.28;;;1.83;100.00
5283;BME280;15376;48.540;9.268;2023-01-28T12:13:35;98261.16;;;1.91;100.00
5283;BME280;15376;48.540;9.268;2023-01-28T12:16:17;98265.78;;;1.88;100.00
5283;BME280;15376;48.540;9.268;2023-01-28T12:25:03;98266.78;;;1.61;100.00
5283;BME280;15376;48.540;9.268;2023-01-28T12:27:43;98268.19;;;1.54;100.00
5283;BME280;15376;48.540;9.268;2023-01-28T12:41:17;98261.81;;;1.46;100.00
5283;BME280;15376;48.540;9.268;2023-01-28T12:43:57;98263.91;;;1.41;100.00
5283;BME280;15376;48.540;9.268;2023-01-28T12:46:44;98268.91;;;1.44;100.00
5283;BME280;15376;48.540;9.268;2023-01-28T12:52:21;98271.84;;;1.39;100.00
5283;BME280;15376;48.540;9.268;2023-01-28T12:55:02;98273.31;;;1.43;100.00
5283;BME280;15376;48.540;9.268;2023-01-28T12:57:31;98256.16;;;1.26;100.00
5283;BME280;15376;48.540;9.268;2023-01-28T13:02:34;98269.13;;;1.28;100.00
5283;BME280;15376;48.540;9.268;2023-01-28T13:05:20;98269.13;;;1.28;100.00
5283;BME280;15376;48.540;9.268;2023-01-28T13:08:21;98272.69;;;1.27;100.00
5283;BME280;15376;48.540;9.268;2023-01-28T13:10:43;98267.66;;;1.24;100.00
5283;BME280;15376;48.540;9.268;2023-01-28T13:16:04;98233.38;;;1.03;100.00
5283;BME280;15376;48.540;9.268;2023-01-28T13:21:05;98266.94;;;1.22;100.00
5283;BME280;15376;48.540;9.268;2023-01-28T13:28:45;98268.19;;;1.29;100.00
5283;BME280;15376;48.540;9.268;2023-01-28T13:31:13;98257.63;;;1.43;100.00
5283;BME280;15376;48.540;9.268;2023-01-28T13:33:43;98234.38;;;1.39;100.00
5283;BME280;15376;48.540;9.268;2023-01-28T13:36:44;98254.91;;;1.32;100.00
5283;BME280;15376;48.540;9.268;2023-01-28T13:41:44;98250.91;;;1.39;100.00
5283;BME280;15376;48.540;9.268;2023-01-28T13:44:26;98259.69;;;1.51;100.00
5283;BME280;15376;48.540;9.268;2023-01-28T13:46:54;98266.34;;;1.67;100.00
5283;BME280;15376;48.540;9.268;2023-01-28T13:49:44;98262.75;;;1.81;100.00
5283;BME280;15376;48.540;9.268;2023-01-28T13:55:12;98264.31;;;1.84;100.00
5283;BME280;15376;48.540;9.268;2023-01-28T14:02:42;98269.19;;;1.64;100.00
5283;BME280;15376;48.540;9.268;2023-01-28T14:18:33;98290.06;;;1.53;100.00
5283;BME280;15376;48.540;9.268;2023-01-28T14:21:02;98285.75;;;1.52;100.00
5283;BME280;15376;48.540;9.268;2023-01-28T14:23:29;98291.94;;;1.39;100.00
5283;BME280;15376;48.540;9.268;2023-01-28T14:26:17;98292.56;;;1.29;100.00
5283;BME280;15376;48.540;9.268;2023-01-28T14:29:04;98287.47;;;1.15;100.00
5283;BME280;15376;48.540;9.268;2023-01-28T14:31:35;98307.63;;;1.26;100.00
5283;BME280;15376;48.540;9.268;2023-01-28T14:34:20;98302.00;;;1.19;100.00
5283;BME280;15376;48.540;9.268;2023-01-28T14:36:48;98311.50;;;1.20;100.00
5283;BME280;15376;48.540;9.268;2023-01-28T14:39:19;98286.31;;;1.07;100.00
5283;BME280;15376;48.540;9.268;2023-01-28T14:41:47;98311.41;;;1.22;100.00
5283;BME280;15376;48.540;9.268;2023-01-28T14:44:33;98308.09;;;1.20;100.00
5283;BME280;15376;48.540;9.268;2023-01-28T14:50:03;98325.22;;;1.24;100.00
5283;BME280;15376;48.540;9.268;2023-01-28T14:52:41;98324.19;;;1.26;100.00
5283;BME280;15376;48.540;9.268;2023-01-28T14:57:46;98320.19;;;1.21;100.00
5283;BME280;15376;48.540;9.268;2023-01-28T15:00:17;98330.25;;;1.27;100.00
5283;BME280;15376;48.540;9.268;2023-01-28T15:02:43;98284.84;;;1.03;100.00
5283;BME280;15376;48.540;9.268;2023-01-28T15:05:15;98331.09;;;1.27;100.00